PORT of SANDNES

Država: Norway Država: Norway (NO)
Širina / Dužina: 58.858° / 5.7475° Prikaži na mapi Prikaži na mapi
Lokalno vreme:  UTC +2
UN/LOCODE: NOSAS
Plovilo je trenutno u luci: 5
Očekivani dolasci: 3

Skorašnji dolasci i odlasci


Ime plovila
Dolazak (UTC)
Dolazak (LT)
Odlazak (UTC)
Odlazak (LT)
Vessel Type: Teretno plovilo  ECL CHALLENGER 2014-10-23 13:11:00 2014-10-23 15:11:00 2014-10-23 15:48:00 2014-10-23 17:48:00
Vessel Type: Remorker, Pilot  NAPPEN 2014-10-23 14:55:00 2014-10-23 16:55:00 2014-10-23 15:39:00 2014-10-23 17:39:00
Vessel Type: Remorker, Pilot  SHJANDUR 2014-10-21 17:43:00 2014-10-21 19:43:00 2014-10-21 18:19:00 2014-10-21 20:19:00
Vessel Type: Putnički brodovi  LOST 2014-10-21 08:21:00 2014-10-21 10:21:00
Vessel Type: Teretno plovilo  INGVILD 2014-10-20 15:47:00 2014-10-20 17:47:00 2014-10-21 08:14:00 2014-10-21 10:14:00
Vessel Type: Putnički brodovi  LOST 2014-10-19 07:01:00 2014-10-19 09:01:00 2014-10-21 08:00:00 2014-10-21 10:00:00
Vessel Type: Teretno plovilo  RANA EXPRESS 2014-10-20 11:56:00 2014-10-20 13:56:00 2014-10-20 14:43:00 2014-10-20 16:43:00
Vessel Type: Remorker, Pilot  SHJANDUR 2014-10-20 07:49:00 2014-10-20 09:49:00 2014-10-20 09:08:00 2014-10-20 11:08:00
Vessel Type: Teretno plovilo  FAXBORG 2014-10-18 08:04:00 2014-10-18 10:04:00 2014-10-20 08:15:00 2014-10-20 10:15:00
Vessel Type: Jahte i drugi  PERLAA 2014-10-19 12:16:00 2014-10-19 14:16:00

Očekivani dolasci


Ime plovila
Scheduled Arrival (UTC)
Planirani dolazak (lokalno vreme)
Procenjeno vreme dolaska (UTC)
Procenjeno vreme dolaska (lokalno)
Vessel Type: Teretno plovilo  SATURN 2014-10-23 22:00:00 2014-10-24 00:00:00 2014-10-24 23:44:00 2014-10-25 01:44:00
Vessel Type: Teretno plovilo  COMETA 2014-10-24 06:00:00 2014-10-24 08:00:00 2014-10-24 06:09:00 2014-10-24 08:09:00
Vessel Type: Teretno plovilo  HAGLAND CHIEF 2014-10-24 09:00:00 2014-10-24 11:00:00

Wind Forecast


    
Vreme (UTC)
Brzina
Direction
Temperature
2014-10-23 21:00:00 23 knots 182° 12°C
2014-10-24 00:00:00 22 knots 183° 12°C
2014-10-24 03:00:00 19 knots 198° 12°C
2014-10-24 06:00:00 15 knots 214° 12°C
2014-10-24 09:00:00 12 knots 218° 12°C
2014-10-24 12:00:00 12 knots 215° 12°C
2014-10-24 15:00:00 12 knots 209° 12°C
2014-10-24 18:00:00 11 knots 200° 12°C
2014-10-24 21:00:00 12 knots 202° 11°C
2014-10-25 00:00:00 13 knots 227° 11°C
2014-10-25 03:00:00 13 knots 230° 10°C
2014-10-25 06:00:00 15 knots 207° 10°C
2014-10-25 09:00:00 20 knots 204° 11°C
2014-10-25 12:00:00 23 knots 204° 11°C
2014-10-25 15:00:00 24 knots 204° 11°C
2014-10-25 18:00:00 25 knots 205° 10°C
2014-10-25 21:00:00 26 knots 198° 10°C